sensor_id;sensor_type;location;lat;lon;timestamp;pressure;altitude;pressure_sealevel;temperature;humidity
28432;BME280;15664;51.302;7.744;2023-02-18T00:00:11;83039.09;;;-146.98;100.00
28432;BME280;15664;51.302;7.744;2023-02-18T00:02:38;83075.75;;;-146.98;100.00
28432;BME280;15664;51.302;7.744;2023-02-18T00:05:04;83059.47;;;-146.98;100.00
28432;BME280;15664;51.302;7.744;2023-02-18T00:07:34;83043.19;;;-146.98;100.00
28432;BME280;15664;51.302;7.744;2023-02-18T00:10:00;83002.44;;;-146.98;100.00
28432;BME280;15664;51.302;7.744;2023-02-18T00:12:25;83045.22;;;-146.98;100.00
28432;BME280;15664;51.302;7.744;2023-02-18T00:14:51;83039.09;;;-146.98;100.00
28432;BME280;15664;51.302;7.744;2023-02-18T00:17:16;83063.53;;;-146.98;100.00
28432;BME280;15664;51.302;7.744;2023-02-18T00:19:42;83065.56;;;-146.98;100.00
28432;BME280;15664;51.302;7.744;2023-02-18T00:22:08;83065.56;;;-146.98;100.00
28432;BME280;15664;51.302;7.744;2023-02-18T00:24:33;83051.31;;;-146.98;100.00
28432;BME280;15664;51.302;7.744;2023-02-18T00:26:58;83051.31;;;-146.98;100.00
28432;BME280;15664;51.302;7.744;2023-02-18T00:29:24;83055.41;;;-146.98;100.00
28432;BME280;15664;51.302;7.744;2023-02-18T00:31:49;83083.91;;;-146.98;100.00
28432;BME280;15664;51.302;7.744;2023-02-18T00:34:15;83079.84;;;-146.98;100.00
28432;BME280;15664;51.302;7.744;2023-02-18T00:36:40;83028.91;;;-146.98;100.00
28432;BME280;15664;51.302;7.744;2023-02-18T00:39:08;83106.31;;;-146.98;100.00
28432;BME280;15664;51.302;7.744;2023-02-18T00:41:34;83022.81;;;-146.98;100.00
28432;BME280;15664;51.302;7.744;2023-02-18T00:44:00;83026.88;;;-146.98;100.00
28432;BME280;15664;51.302;7.744;2023-02-18T00:46:27;83041.13;;;-146.98;100.00
28432;BME280;15664;51.302;7.744;2023-02-18T00:48:53;83065.56;;;-146.98;100.00
28432;BME280;15664;51.302;7.744;2023-02-18T00:51:19;83051.31;;;-146.98;100.00
28432;BME280;15664;51.302;7.744;2023-02-18T00:53:46;83073.72;;;-146.98;100.00
28432;BME280;15664;51.302;7.744;2023-02-18T00:56:13;83128.72;;;-146.98;100.00
28432;BME280;15664;51.302;7.744;2023-02-18T00:58:40;83106.31;;;-146.98;100.00
28432;BME280;15664;51.302;7.744;2023-02-18T01:01:06;83081.88;;;-146.98;100.00
28432;BME280;15664;51.302;7.744;2023-02-18T01:03:32;83030.97;;;-146.98;100.00
28432;BME280;15664;51.302;7.744;2023-02-18T01:05:58;83061.50;;;-146.98;100.00
28432;BME280;15664;51.302;7.744;2023-02-18T01:08:24;83092.06;;;-146.98;100.00
28432;BME280;15664;51.302;7.744;2023-02-18T01:10:53;83071.69;;;-146.98;100.00
28432;BME280;15664;51.302;7.744;2023-02-18T01:13:20;83087.97;;;-146.98;100.00
28432;BME280;15664;51.302;7.744;2023-02-18T01:15:46;83071.69;;;-146.98;100.00
28432;BME280;15664;51.302;7.744;2023-02-18T01:18:12;83079.84;;;-146.98;100.00
28432;BME280;15664;51.302;7.744;2023-02-18T01:20:39;83065.56;;;-146.98;100.00
28432;BME280;15664;51.302;7.744;2023-02-18T01:23:06;83083.91;;;-146.98;100.00
28432;BME280;15664;51.302;7.744;2023-02-18T01:25:32;83071.69;;;-146.98;100.00
28432;BME280;15664;51.302;7.744;2023-02-18T01:27:59;83116.50;;;-146.98;100.00
28432;BME280;15664;51.302;7.744;2023-02-18T01:30:25;83112.41;;;-146.98;100.00
28432;BME280;15664;51.302;7.744;2023-02-18T01:32:50;83075.75;;;-146.98;100.00
28432;BME280;15664;51.302;7.744;2023-02-18T01:35:18;83051.31;;;-146.98;100.00
28432;BME280;15664;51.302;7.744;2023-02-18T01:37:44;83087.97;;;-146.98;100.00
28432;BME280;15664;51.302;7.744;2023-02-18T01:40:15;83079.84;;;-146.98;100.00
28432;BME280;15664;51.302;7.744;2023-02-18T01:42:41;83083.91;;;-146.98;100.00
28432;BME280;15664;51.302;7.744;2023-02-18T01:48:05;83098.16;;;-146.98;100.00
28432;BME280;15664;51.302;7.744;2023-02-18T01:50:37;83083.91;;;-146.98;100.00
28432;BME280;15664;51.302;7.744;2023-02-18T01:53:05;83083.91;;;-146.98;100.00
28432;BME280;15664;51.302;7.744;2023-02-18T01:55:33;83071.69;;;-146.98;100.00
28432;BME280;15664;51.302;7.744;2023-02-18T01:57:59;83057.44;;;-146.98;100.00
28432;BME280;15664;51.302;7.744;2023-02-18T02:00:25;83055.41;;;-146.98;100.00
28432;BME280;15664;51.302;7.744;2023-02-18T02:02:52;83069.66;;;-146.98;100.00
28432;BME280;15664;51.302;7.744;2023-02-18T02:05:19;83092.06;;;-146.98;100.00
28432;BME280;15664;51.302;7.744;2023-02-18T02:07:48;83090.00;;;-146.98;100.00
28432;BME280;15664;51.302;7.744;2023-02-18T02:10:14;83130.75;;;-146.98;100.00
28432;BME280;15664;51.302;7.744;2023-02-18T02:13:06;83151.09;;;-146.98;100.00
28432;BME280;15664;51.302;7.744;2023-02-18T02:18:17;83071.69;;;-146.98;100.00
28432;BME280;15664;51.302;7.744;2023-02-18T02:23:49;83100.19;;;-146.98;100.00
28432;BME280;15664;51.302;7.744;2023-02-18T02:26:40;83067.63;;;-146.98;100.00
28432;BME280;15664;51.302;7.744;2023-02-18T02:29:50;83081.88;;;-146.98;100.00
28432;BME280;15664;51.302;7.744;2023-02-18T02:37:58;83055.41;;;-146.98;100.00
28432;BME280;15664;51.302;7.744;2023-02-18T02:46:20;83094.09;;;-146.98;100.00
28432;BME280;15664;51.302;7.744;2023-02-18T02:54:11;83104.25;;;-146.98;100.00
28432;BME280;15664;51.302;7.744;2023-02-18T02:56:38;83087.97;;;-146.98;100.00
28432;BME280;15664;51.302;7.744;2023-02-18T02:59:05;83112.41;;;-146.98;100.00
28432;BME280;15664;51.302;7.744;2023-02-18T03:04:40;83112.41;;;-146.98;100.00
28432;BME280;15664;51.302;7.744;2023-02-18T03:09:51;83090.00;;;-146.98;100.00
28432;BME280;15664;51.302;7.744;2023-02-18T03:15:21;83073.72;;;-146.98;100.00
28432;BME280;15664;51.302;7.744;2023-02-18T03:17:56;83128.72;;;-146.98;100.00
28432;BME280;15664;51.302;7.744;2023-02-18T03:20:36;83079.84;;;-146.98;100.00
28432;BME280;15664;51.302;7.744;2023-02-18T03:23:06;83124.63;;;-146.98;100.00
28432;BME280;15664;51.302;7.744;2023-02-18T03:25:36;83096.13;;;-146.98;100.00
28432;BME280;15664;51.302;7.744;2023-02-18T03:28:09;83134.81;;;-146.98;100.00
28432;BME280;15664;51.302;7.744;2023-02-18T03:30:42;83059.47;;;-146.98;100.00
28432;BME280;15664;51.302;7.744;2023-02-18T03:33:17;83124.63;;;-146.98;100.00
28432;BME280;15664;51.302;7.744;2023-02-18T03:35:45;83100.19;;;-146.98;100.00
28432;BME280;15664;51.302;7.744;2023-02-18T03:38:18;83098.16;;;-146.98;100.00
28432;BME280;15664;51.302;7.744;2023-02-18T03:40:45;83104.25;;;-146.98;100.00
28432;BME280;15664;51.302;7.744;2023-02-18T03:43:11;83124.63;;;-146.98;100.00
28432;BME280;15664;51.302;7.744;2023-02-18T03:45:36;83096.13;;;-146.98;100.00
28432;BME280;15664;51.302;7.744;2023-02-18T03:48:03;83149.06;;;-146.98;100.00
28432;BME280;15664;51.302;7.744;2023-02-18T03:50:28;83100.19;;;-146.98;100.00
28432;BME280;15664;51.302;7.744;2023-02-18T03:52:54;83077.78;;;-146.98;100.00
28432;BME280;15664;51.302;7.744;2023-02-18T03:55:20;83083.91;;;-146.98;100.00
28432;BME280;15664;51.302;7.744;2023-02-18T03:57:45;83077.78;;;-146.98;100.00
28432;BME280;15664;51.302;7.744;2023-02-18T04:00:11;83128.72;;;-146.98;100.00
28432;BME280;15664;51.302;7.744;2023-02-18T04:02:40;83096.13;;;-146.98;100.00
28432;BME280;15664;51.302;7.744;2023-02-18T04:05:06;83061.50;;;-146.98;100.00
28432;BME280;15664;51.302;7.744;2023-02-18T04:07:32;83059.47;;;-146.98;100.00
28432;BME280;15664;51.302;7.744;2023-02-18T04:09:58;83096.13;;;-146.98;100.00
28432;BME280;15664;51.302;7.744;2023-02-18T04:12:24;83063.53;;;-146.98;100.00
28432;BME280;15664;51.302;7.744;2023-02-18T04:14:49;83037.06;;;-146.98;100.00
28432;BME280;15664;51.302;7.744;2023-02-18T04:17:17;83090.00;;;-146.98;100.00
28432;BME280;15664;51.302;7.744;2023-02-18T04:19:43;83100.19;;;-146.98;100.00
28432;BME280;15664;51.302;7.744;2023-02-18T04:22:09;83083.91;;;-146.98;100.00
28432;BME280;15664;51.302;7.744;2023-02-18T04:24:35;83106.31;;;-146.98;100.00
28432;BME280;15664;51.302;7.744;2023-02-18T04:27:00;83092.06;;;-146.98;100.00
28432;BME280;15664;51.302;7.744;2023-02-18T04:29:26;83108.34;;;-146.98;100.00
28432;BME280;15664;51.302;7.744;2023-02-18T04:31:51;83104.25;;;-146.98;100.00
28432;BME280;15664;51.302;7.744;2023-02-18T04:34:17;83124.63;;;-146.98;100.00
28432;BME280;15664;51.302;7.744;2023-02-18T04:36:43;83085.94;;;-146.98;100.00
28432;BME280;15664;51.302;7.744;2023-02-18T04:39:08;83075.75;;;-146.98;100.00
28432;BME280;15664;51.302;7.744;2023-02-18T04:41:34;83159.25;;;-146.98;100.00
28432;BME280;15664;51.302;7.744;2023-02-18T04:43:59;83104.25;;;-146.98;100.00
28432;BME280;15664;51.302;7.744;2023-02-18T04:46:25;83083.91;;;-146.98;100.00
28432;BME280;15664;51.302;7.744;2023-02-18T04:48:51;83085.94;;;-146.98;100.00
28432;BME280;15664;51.302;7.744;2023-02-18T04:51:16;83108.34;;;-146.98;100.00
28432;BME280;15664;51.302;7.744;2023-02-18T04:53:42;83087.97;;;-146.98;100.00
28432;BME280;15664;51.302;7.744;2023-02-18T04:56:08;83087.97;;;-146.98;100.00
28432;BME280;15664;51.302;7.744;2023-02-18T04:58:33;83085.94;;;-146.98;100.00
28432;BME280;15664;51.302;7.744;2023-02-18T05:01:02;83069.66;;;-146.98;100.00
28432;BME280;15664;51.302;7.744;2023-02-18T05:03:28;83067.63;;;-146.98;100.00
28432;BME280;15664;51.302;7.744;2023-02-18T05:05:54;83081.88;;;-146.98;100.00
28432;BME280;15664;51.302;7.744;2023-02-18T05:08:19;83128.72;;;-146.98;100.00
28432;BME280;15664;51.302;7.744;2023-02-18T05:10:45;83083.91;;;-146.98;100.00
28432;BME280;15664;51.302;7.744;2023-02-18T05:13:11;83075.75;;;-146.98;100.00
28432;BME280;15664;51.302;7.744;2023-02-18T05:15:36;83073.72;;;-146.98;100.00
28432;BME280;15664;51.302;7.744;2023-02-18T05:18:02;83083.91;;;-146.98;100.00
28432;BME280;15664;51.302;7.744;2023-02-18T05:20:27;83108.34;;;-146.98;100.00
28432;BME280;15664;51.302;7.744;2023-02-18T05:22:53;83100.19;;;-146.98;100.00
28432;BME280;15664;51.302;7.744;2023-02-18T05:25:18;83140.91;;;-146.98;100.00
28432;BME280;15664;51.302;7.744;2023-02-18T05:27:44;83100.19;;;-146.98;100.00
28432;BME280;15664;51.302;7.744;2023-02-18T05:30:09;83116.50;;;-146.98;100.00
28432;BME280;15664;51.302;7.744;2023-02-18T05:32:35;83090.00;;;-146.98;100.00
28432;BME280;15664;51.302;7.744;2023-02-18T05:35:00;83092.06;;;-146.98;100.00
28432;BME280;15664;51.302;7.744;2023-02-18T05:37:26;83096.13;;;-146.98;100.00
28432;BME280;15664;51.302;7.744;2023-02-18T05:39:51;83090.00;;;-146.98;100.00
28432;BME280;15664;51.302;7.744;2023-02-18T05:42:17;83124.63;;;-146.98;100.00
28432;BME280;15664;51.302;7.744;2023-02-18T05:44:42;83100.19;;;-146.98;100.00
28432;BME280;15664;51.302;7.744;2023-02-18T05:47:10;83110.38;;;-146.98;100.00
28432;BME280;15664;51.302;7.744;2023-02-18T05:49:38;83083.91;;;-146.98;100.00
28432;BME280;15664;51.302;7.744;2023-02-18T05:52:04;83102.22;;;-146.98;100.00
28432;BME280;15664;51.302;7.744;2023-02-18T05:54:30;83075.75;;;-146.98;100.00
28432;BME280;15664;51.302;7.744;2023-02-18T05:56:56;83087.97;;;-146.98;100.00
28432;BME280;15664;51.302;7.744;2023-02-18T05:59:22;83102.22;;;-146.98;100.00
28432;BME280;15664;51.302;7.744;2023-02-18T06:01:48;83114.44;;;-146.98;100.00
28432;BME280;15664;51.302;7.744;2023-02-18T06:04:13;83108.34;;;-146.98;100.00
28432;BME280;15664;51.302;7.744;2023-02-18T06:06:39;83128.72;;;-146.98;100.00
28432;BME280;15664;51.302;7.744;2023-02-18T06:09:05;83130.75;;;-146.98;100.00
28432;BME280;15664;51.302;7.744;2023-02-18T06:11:31;83081.88;;;-146.98;100.00
28432;BME280;15664;51.302;7.744;2023-02-18T06:13:57;83085.94;;;-146.98;100.00
28432;BME280;15664;51.302;7.744;2023-02-18T06:16:22;83081.88;;;-146.98;100.00
28432;BME280;15664;51.302;7.744;2023-02-18T06:18:48;83116.50;;;-146.98;100.00
28432;BME280;15664;51.302;7.744;2023-02-18T06:21:13;83102.22;;;-146.98;100.00
28432;BME280;15664;51.302;7.744;2023-02-18T06:23:39;83092.06;;;-146.98;100.00
28432;BME280;15664;51.302;7.744;2023-02-18T06:26:04;83116.50;;;-146.98;100.00
28432;BME280;15664;51.302;7.744;2023-02-18T06:28:30;83132.78;;;-146.98;100.00
28432;BME280;15664;51.302;7.744;2023-02-18T06:30:55;83124.63;;;-146.98;100.00
28432;BME280;15664;51.302;7.744;2023-02-18T06:33:21;83100.19;;;-146.98;100.00
28432;BME280;15664;51.302;7.744;2023-02-18T06:35:59;83140.91;;;-146.98;100.00
28432;BME280;15664;51.302;7.744;2023-02-18T06:38:24;83120.56;;;-146.98;100.00
28432;BME280;15664;51.302;7.744;2023-02-18T06:40:50;83030.97;;;-146.98;100.00
28432;BME280;15664;51.302;7.744;2023-02-18T06:43:16;83055.41;;;-146.98;100.00
28432;BME280;15664;51.302;7.744;2023-02-18T06:45:42;83085.94;;;-146.98;100.00
28432;BME280;15664;51.302;7.744;2023-02-18T06:48:08;83130.75;;;-146.98;100.00
28432;BME280;15664;51.302;7.744;2023-02-18T06:50:33;83134.81;;;-146.98;100.00
28432;BME280;15664;51.302;7.744;2023-02-18T06:52:58;83112.41;;;-146.98;100.00
28432;BME280;15664;51.302;7.744;2023-02-18T06:55:24;83126.66;;;-146.98;100.00
28432;BME280;15664;51.302;7.744;2023-02-18T06:57:50;83175.53;;;-146.98;100.00
28432;BME280;15664;51.302;7.744;2023-02-18T07:00:16;83096.13;;;-146.98;100.00
28432;BME280;15664;51.302;7.744;2023-02-18T07:02:41;83096.13;;;-146.98;100.00
28432;BME280;15664;51.302;7.744;2023-02-18T07:05:07;83100.19;;;-146.98;100.00
28432;BME280;15664;51.302;7.744;2023-02-18T07:07:33;83128.72;;;-146.98;100.00
28432;BME280;15664;51.302;7.744;2023-02-18T07:09:59;83140.91;;;-146.98;100.00
28432;BME280;15664;51.302;7.744;2023-02-18T07:12:24;83104.25;;;-146.98;100.00
28432;BME280;15664;51.302;7.744;2023-02-18T07:14:50;83059.47;;;-146.98;100.00
28432;BME280;15664;51.302;7.744;2023-02-18T07:17:15;83079.84;;;-146.98;100.00
28432;BME280;15664;51.302;7.744;2023-02-18T07:19:41;83098.16;;;-146.98;100.00
28432;BME280;15664;51.302;7.744;2023-02-18T07:22:06;83055.41;;;-146.98;100.00
28432;BME280;15664;51.302;7.744;2023-02-18T07:24:32;83118.53;;;-146.98;100.00
28432;BME280;15664;51.302;7.744;2023-02-18T07:26:57;83043.19;;;-146.98;100.00
28432;BME280;15664;51.302;7.744;2023-02-18T07:29:23;83108.34;;;-146.98;100.00
28432;BME280;15664;51.302;7.744;2023-02-18T07:31:48;83087.97;;;-146.98;100.00
28432;BME280;15664;51.302;7.744;2023-02-18T07:34:14;83140.91;;;-146.98;100.00
28432;BME280;15664;51.302;7.744;2023-02-18T07:36:39;83165.38;;;-146.98;100.00
28432;BME280;15664;51.302;7.744;2023-02-18T07:39:05;83163.31;;;-146.98;100.00
28432;BME280;15664;51.302;7.744;2023-02-18T07:41:30;83124.63;;;-146.98;100.00
28432;BME280;15664;51.302;7.744;2023-02-18T07:43:56;83116.50;;;-146.98;100.00
28432;BME280;15664;51.302;7.744;2023-02-18T07:46:21;83161.28;;;-146.98;100.00
28432;BME280;15664;51.302;7.744;2023-02-18T07:48:47;83134.81;;;-146.98;100.00
28432;BME280;15664;51.302;7.744;2023-02-18T07:51:12;83202.00;;;-146.98;100.00
28432;BME280;15664;51.302;7.744;2023-02-18T07:53:38;83124.63;;;-146.98;100.00
28432;BME280;15664;51.302;7.744;2023-02-18T07:56:05;83169.44;;;-146.98;100.00
28432;BME280;15664;51.302;7.744;2023-02-18T07:58:33;83155.19;;;-146.98;100.00
28432;BME280;15664;51.302;7.744;2023-02-18T08:00:59;83142.97;;;-146.98;100.00
28432;BME280;15664;51.302;7.744;2023-02-18T08:03:28;83151.09;;;-146.98;100.00
28432;BME280;15664;51.302;7.744;2023-02-18T08:05:54;83140.91;;;-146.98;100.00
28432;BME280;15664;51.302;7.744;2023-02-18T08:08:26;83167.41;;;-146.98;100.00
28432;BME280;15664;51.302;7.744;2023-02-18T08:10:53;83149.06;;;-146.98;100.00
28432;BME280;15664;51.302;7.744;2023-02-18T08:13:19;83138.88;;;-146.98;100.00
28432;BME280;15664;51.302;7.744;2023-02-18T08:15:44;83140.91;;;-146.98;100.00
28432;BME280;15664;51.302;7.744;2023-02-18T08:18:18;83195.91;;;-146.98;100.00
28432;BME280;15664;51.302;7.744;2023-02-18T08:20:44;83153.13;;;-146.98;100.00
28432;BME280;15664;51.302;7.744;2023-02-18T08:23:13;83130.75;;;-146.98;100.00
28432;BME280;15664;51.302;7.744;2023-02-18T08:25:39;83175.53;;;-146.98;100.00
28432;BME280;15664;51.302;7.744;2023-02-18T08:28:05;83169.44;;;-146.98;100.00
28432;BME280;15664;51.302;7.744;2023-02-18T08:30:31;83138.88;;;-146.98;100.00
28432;BME280;15664;51.302;7.744;2023-02-18T08:32:57;83193.88;;;-146.98;100.00
28432;BME280;15664;51.302;7.744;2023-02-18T08:35:23;83171.47;;;-146.98;100.00
28432;BME280;15664;51.302;7.744;2023-02-18T08:37:48;83185.72;;;-146.98;100.00
28432;BME280;15664;51.302;7.744;2023-02-18T08:40:14;83181.66;;;-146.98;100.00
28432;BME280;15664;51.302;7.744;2023-02-18T08:42:40;83175.53;;;-146.98;100.00
28432;BME280;15664;51.302;7.744;2023-02-18T08:45:06;83175.53;;;-146.98;100.00
28432;BME280;15664;51.302;7.744;2023-02-18T08:47:32;83151.09;;;-146.98;100.00
28432;BME280;15664;51.302;7.744;2023-02-18T08:49:58;83173.50;;;-146.98;100.00
28432;BME280;15664;51.302;7.744;2023-02-18T08:52:24;83149.06;;;-146.98;100.00
28432;BME280;15664;51.302;7.744;2023-02-18T08:54:50;83185.72;;;-146.98;100.00
28432;BME280;15664;51.302;7.744;2023-02-18T08:57:15;83197.94;;;-146.98;100.00
28432;BME280;15664;51.302;7.744;2023-02-18T08:59:41;83165.38;;;-146.98;100.00
28432;BME280;15664;51.302;7.744;2023-02-18T09:02:06;83228.50;;;-146.98;100.00
28432;BME280;15664;51.302;7.744;2023-02-18T09:04:32;83228.50;;;-146.98;100.00
28432;BME280;15664;51.302;7.744;2023-02-18T09:06:58;83218.31;;;-146.98;100.00
28432;BME280;15664;51.302;7.744;2023-02-18T09:09:23;83153.13;;;-146.98;100.00
28432;BME280;15664;51.302;7.744;2023-02-18T09:11:49;83204.06;;;-146.98;100.00
28432;BME280;15664;51.302;7.744;2023-02-18T09:14:14;83252.94;;;-146.98;100.00
28432;BME280;15664;51.302;7.744;2023-02-18T09:16:41;83185.72;;;-146.98;100.00
28432;BME280;15664;51.302;7.744;2023-02-18T09:19:07;83185.72;;;-146.98;100.00
28432;BME280;15664;51.302;7.744;2023-02-18T09:21:33;83218.31;;;-146.98;100.00
28432;BME280;15664;51.302;7.744;2023-02-18T09:23:59;83250.88;;;-146.98;100.00
28432;BME280;15664;51.302;7.744;2023-02-18T09:26:25;83210.16;;;-146.98;100.00
28432;BME280;15664;51.302;7.744;2023-02-18T09:28:53;83191.84;;;-146.98;100.00
28432;BME280;15664;51.302;7.744;2023-02-18T09:31:22;83193.88;;;-146.98;100.00
28432;BME280;15664;51.302;7.744;2023-02-18T09:33:50;83248.84;;;-146.98;100.00
28432;BME280;15664;51.302;7.744;2023-02-18T09:36:16;83240.72;;;-146.98;100.00
28432;BME280;15664;51.302;7.744;2023-02-18T09:38:42;83204.06;;;-146.98;100.00
28432;BME280;15664;51.302;7.744;2023-02-18T09:41:56;83120.56;;;-146.98;100.00
28432;BME280;15664;51.302;7.744;2023-02-18T09:44:17;83202.00;;;-146.98;100.00
28432;BME280;15664;51.302;7.744;2023-02-18T09:46:51;83230.53;;;-146.98;100.00
28432;BME280;15664;51.302;7.744;2023-02-18T09:49:24;83218.31;;;-146.98;100.00
28432;BME280;15664;51.302;7.744;2023-02-18T09:51:52;83259.03;;;-146.98;100.00
28432;BME280;15664;51.302;7.744;2023-02-18T09:54:19;83234.59;;;-146.98;100.00
28432;BME280;15664;51.302;7.744;2023-02-18T09:56:45;83238.66;;;-146.98;100.00
28432;BME280;15664;51.302;7.744;2023-02-18T09:59:17;83250.88;;;-146.98;100.00
28432;BME280;15664;51.302;7.744;2023-02-18T10:01:45;83299.75;;;-146.98;100.00
28432;BME280;15664;51.302;7.744;2023-02-18T10:04:18;83324.22;;;-146.98;100.00
28432;BME280;15664;51.302;7.744;2023-02-18T10:06:47;83257.00;;;-146.98;100.00
28432;BME280;15664;51.302;7.744;2023-02-18T10:09:39;83267.19;;;-146.98;100.00
28432;BME280;15664;51.302;7.744;2023-02-18T10:12:17;83246.81;;;-146.98;100.00
28432;BME280;15664;51.302;7.744;2023-02-18T10:14:49;83250.88;;;-146.98;100.00
28432;BME280;15664;51.302;7.744;2023-02-18T10:17:16;83259.03;;;-146.98;100.00
28432;BME280;15664;51.302;7.744;2023-02-18T10:19:43;83234.59;;;-146.98;100.00
28432;BME280;15664;51.302;7.744;2023-02-18T10:22:12;83267.19;;;-146.98;100.00
28432;BME280;15664;51.302;7.744;2023-02-18T10:24:42;83267.19;;;-146.98;100.00
28432;BME280;15664;51.302;7.744;2023-02-18T10:27:15;83248.84;;;-146.98;100.00
28432;BME280;15664;51.302;7.744;2023-02-18T10:29:42;83265.16;;;-146.98;100.00
28432;BME280;15664;51.302;7.744;2023-02-18T10:32:22;83226.44;;;-146.98;100.00
28432;BME280;15664;51.302;7.744;2023-02-18T10:35:29;83287.53;;;-146.98;100.00
28432;BME280;15664;51.302;7.744;2023-02-18T10:38:13;83257.00;;;-146.98;100.00
28432;BME280;15664;51.302;7.744;2023-02-18T10:41:08;83267.19;;;-146.98;100.00
28432;BME280;15664;51.302;7.744;2023-02-18T10:44:13;83259.03;;;-146.98;100.00
28432;BME280;15664;51.302;7.744;2023-02-18T10:49:57;83299.75;;;-146.98;100.00
28432;BME280;15664;51.302;7.744;2023-02-18T10:52:26;83244.78;;;-146.98;100.00
28432;BME280;15664;51.302;7.744;2023-02-18T10:54:57;83271.25;;;-146.98;100.00
28432;BME280;15664;51.302;7.744;2023-02-18T10:57:23;83246.81;;;-146.98;100.00
28432;BME280;15664;51.302;7.744;2023-02-18T11:02:20;83250.88;;;-146.98;100.00
28432;BME280;15664;51.302;7.744;2023-02-18T11:04:45;83279.41;;;-146.98;100.00
28432;BME280;15664;51.302;7.744;2023-02-18T11:07:22;83246.81;;;-146.98;100.00
28432;BME280;15664;51.302;7.744;2023-02-18T11:09:52;83263.09;;;-146.98;100.00
28432;BME280;15664;51.302;7.744;2023-02-18T11:12:23;83271.25;;;-146.98;100.00
28432;BME280;15664;51.302;7.744;2023-02-18T11:17:31;83238.66;;;-146.98;100.00
28432;BME280;15664;51.302;7.744;2023-02-18T11:20:01;83269.22;;;-146.98;100.00
28432;BME280;15664;51.302;7.744;2023-02-18T11:22:32;83232.56;;;-146.98;100.00
28432;BME280;15664;51.302;7.744;2023-02-18T11:25:00;83281.44;;;-146.98;100.00
28432;BME280;15664;51.302;7.744;2023-02-18T11:27:43;83232.56;;;-146.98;100.00
28432;BME280;15664;51.302;7.744;2023-02-18T11:30:22;83242.75;;;-146.98;100.00
28432;BME280;15664;51.302;7.744;2023-02-18T11:32:52;83208.13;;;-146.98;100.00
28432;BME280;15664;51.302;7.744;2023-02-18T11:35:26;83254.97;;;-146.98;100.00
28432;BME280;15664;51.302;7.744;2023-02-18T11:37:52;83238.66;;;-146.98;100.00
28432;BME280;15664;51.302;7.744;2023-02-18T11:40:24;83246.81;;;-146.98;100.00
28432;BME280;15664;51.302;7.744;2023-02-18T11:42:50;83248.84;;;-146.98;100.00
28432;BME280;15664;51.302;7.744;2023-02-18T11:45:28;83228.50;;;-146.98;100.00
28432;BME280;15664;51.302;7.744;2023-02-18T11:48:07;83214.22;;;-146.98;100.00
28432;BME280;15664;51.302;7.744;2023-02-18T11:50:34;83222.38;;;-146.98;100.00
28432;BME280;15664;51.302;7.744;2023-02-18T11:53:26;83257.00;;;-146.98;100.00
28432;BME280;15664;51.302;7.744;2023-02-18T11:55:58;83212.19;;;-146.98;100.00
28432;BME280;15664;51.302;7.744;2023-02-18T11:58:24;83281.44;;;-146.98;100.00
28432;BME280;15664;51.302;7.744;2023-02-18T12:00:54;83234.59;;;-146.98;100.00
28432;BME280;15664;51.302;7.744;2023-02-18T12:03:39;83254.97;;;-146.98;100.00
28432;BME280;15664;51.302;7.744;2023-02-18T12:06:34;83216.28;;;-146.98;100.00
28432;BME280;15664;51.302;7.744;2023-02-18T12:09:20;83216.28;;;-146.98;100.00
28432;BME280;15664;51.302;7.744;2023-02-18T12:11:51;83228.50;;;-146.98;100.00
28432;BME280;15664;51.302;7.744;2023-02-18T12:14:20;83216.28;;;-146.98;100.00
28432;BME280;15664;51.302;7.744;2023-02-18T12:20:14;83193.88;;;-146.98;100.00
28432;BME280;15664;51.302;7.744;2023-02-18T12:23:11;83228.50;;;-146.98;100.00
28432;BME280;15664;51.302;7.744;2023-02-18T12:26:04;83257.00;;;-146.98;100.00
28432;BME280;15664;51.302;7.744;2023-02-18T12:28:50;83246.81;;;-146.98;100.00
28432;BME280;15664;51.302;7.744;2023-02-18T12:34:38;83218.31;;;-146.98;100.00
28432;BME280;15664;51.302;7.744;2023-02-18T12:40:06;83185.72;;;-146.98;100.00
28432;BME280;15664;51.302;7.744;2023-02-18T12:42:51;83197.94;;;-146.98;100.00
28432;BME280;15664;51.302;7.744;2023-02-18T12:45:38;83242.75;;;-146.98;100.00
28432;BME280;15664;51.302;7.744;2023-02-18T12:48:34;83197.94;;;-146.98;100.00
28432;BME280;15664;51.302;7.744;2023-02-18T12:54:17;83246.81;;;-146.98;100.00
28432;BME280;15664;51.302;7.744;2023-02-18T13:02:50;83199.97;;;-146.98;100.00
28432;BME280;15664;51.302;7.744;2023-02-18T13:05:41;83165.38;;;-146.98;100.00
28432;BME280;15664;51.302;7.744;2023-02-18T13:08:40;83206.09;;;-146.98;100.00
28432;BME280;15664;51.302;7.744;2023-02-18T13:11:21;83169.44;;;-146.98;100.00
28432;BME280;15664;51.302;7.744;2023-02-18T13:13:59;83212.19;;;-146.98;100.00
28432;BME280;15664;51.302;7.744;2023-02-18T13:16:37;83187.75;;;-146.98;100.00
28432;BME280;15664;51.302;7.744;2023-02-18T13:21:47;83204.06;;;-146.98;100.00
28432;BME280;15664;51.302;7.744;2023-02-18T13:24:38;83169.44;;;-146.98;100.00
28432;BME280;15664;51.302;7.744;2023-02-18T13:32:46;83210.16;;;-146.98;100.00
28432;BME280;15664;51.302;7.744;2023-02-18T13:35:28;83212.19;;;-146.98;100.00
28432;BME280;15664;51.302;7.744;2023-02-18T13:38:19;83234.59;;;-146.98;100.00
28432;BME280;15664;51.302;7.744;2023-02-18T13:40:49;83189.78;;;-146.98;100.00
28432;BME280;15664;51.302;7.744;2023-02-18T13:46:03;83199.97;;;-146.98;100.00
28432;BME280;15664;51.302;7.744;2023-02-18T13:48:43;83216.28;;;-146.98;100.00
28432;BME280;15664;51.302;7.744;2023-02-18T13:51:14;83183.69;;;-146.98;100.00
28432;BME280;15664;51.302;7.744;2023-02-18T13:53:42;83189.78;;;-146.98;100.00